Time;durP1;ratioP1;P1;durP2;ratioP2;P2;SDS_P1;SDS_P2;PMS_P1;PMS_P2;Temp;Humidity;BMP_temperature;BMP_pressure;BME280_temperature;BME280_humidity;BME280_pressure;Samples;Min_cycle;Max_cycle;Signal;HPM_P1;HPM_P2
2023/03/06 00:00:13;;;;;;;;;;;3.00;99.90;3.70;98937.00;;;;340026;28;91560;-88
2023/03/06 00:00:28;;;;;;;;;;;3.00;99.90;3.70;98936.00;;;;337786;28;83333;-88
2023/03/06 00:00:43;;;;;;;;;;;3.00;99.90;3.60;98936.00;;;;338830;28;90384;-88
2023/03/06 00:01:00;;;;;;;;;;;3.00;99.90;3.60;98938.00;;;;337899;28;83426;-87
2023/03/06 00:01:15;;;;;;;;;;;3.00;99.90;3.60;98934.00;;;;338798;28;90373;-87
2023/03/06 00:01:26;;;;;;;;;;;3.00;99.90;3.50;98926.00;;;;340555;28;83376;-87
2023/03/06 00:01:38;;;;;;;;;;;3.00;99.90;3.50;98935.00;;;;340052;28;91279;-87
2023/03/06 00:01:50;;;;;;;;;;;3.00;99.90;3.50;98936.00;;;;340507;28;82593;-87
2023/03/06 00:02:02;;;;;;;;;;;3.00;99.90;3.50;98927.00;;;;338671;28;90165;-88
2023/03/06 00:02:14;;;;;;;;;;;3.00;99.90;3.60;98938.00;;;;340506;28;83428;-87
2023/03/06 00:02:26;;;;;;;;;;;3.00;99.90;3.70;98935.00;;;;341339;28;91515;-87
2023/03/06 00:02:37;;;;;;;;;;;3.00;99.90;3.70;98934.00;;;;339286;28;83291;-87
2023/03/06 00:02:49;;;;;;;;;;;3.00;99.90;3.70;98928.00;;;;340010;28;91517;-87
2023/03/06 00:03:03;;;;;;;;;;;3.00;99.90;3.70;98938.00;;;;340465;28;83414;-87
2023/03/06 00:03:15;;;;;;;;;;;3.00;99.90;3.60;98923.00;;;;336131;28;89600;-87
2023/03/06 00:03:27;;;;;;;;;;;3.00;99.90;3.60;98928.00;;;;346298;28;83412;-87
2023/03/06 00:03:39;;;;;;;;;;;3.00;99.90;3.60;98932.00;;;;342916;28;91792;-87
2023/03/06 00:03:51;;;;;;;;;;;3.00;99.90;3.60;98937.00;;;;337949;28;82531;-87
2023/03/06 00:04:03;;;;;;;;;;;3.00;99.90;3.50;98941.00;;;;338824;28;91434;-87
2023/03/06 00:04:15;;;;;;;;;;;3.00;99.90;3.50;98939.00;;;;344214;28;83550;-87
2023/03/06 00:04:27;;;;;;;;;;;3.00;99.90;3.60;98933.00;;;;347085;27;91186;-88
2023/03/06 00:04:39;;;;;;;;;;;3.00;99.90;3.50;98925.00;;;;346513;28;82483;-88
2023/03/06 00:04:52;;;;;;;;;;;3.00;99.90;3.60;98945.00;;;;345935;28;91440;-87
2023/03/06 00:05:04;;;;;;;;;;;3.00;99.90;3.50;98940.00;;;;347601;27;83478;-87
2023/03/06 00:05:16;;;;;;;;;;;3.00;99.90;3.50;98930.00;;;;345865;28;91352;-87
2023/03/06 00:05:28;;;;;;;;;;;3.00;99.90;3.50;98932.00;;;;347508;28;82473;-88
2023/03/06 00:05:39;;;;;;;;;;;3.00;99.90;3.50;98936.00;;;;347077;28;92003;-87
2023/03/06 00:05:54;;;;;;;;;;;3.00;99.90;3.60;98934.00;;;;346011;28;83556;-87
2023/03/06 00:06:06;;;;;;;;;;;3.00;99.90;3.50;98942.00;;;;347215;28;90446;-88
2023/03/06 00:06:18;;;;;;;;;;;3.00;99.90;3.50;98945.00;;;;347563;28;83332;-87
2023/03/06 00:06:29;;;;;;;;;;;3.00;99.90;3.50;98939.00;;;;347129;28;91785;-88
2023/03/06 00:06:41;;;;;;;;;;;3.00;99.90;3.50;98937.00;;;;346247;28;82347;-87
2023/03/06 00:06:53;;;;;;;;;;;3.00;99.90;3.50;98942.00;;;;344425;28;91871;-88
2023/03/06 00:07:05;;;;;;;;;;;3.00;99.90;3.40;98945.00;;;;348935;27;83468;-87
2023/03/06 00:07:17;;;;;;;;;;;3.00;99.90;3.40;98948.00;;;;344296;28;90524;-87
2023/03/06 00:07:29;;;;;;;;;;;3.00;99.90;3.40;98936.00;;;;347633;28;82529;-87
2023/03/06 00:07:41;;;;;;;;;;;3.00;99.90;3.40;98945.00;;;;348445;27;92366;-88
2023/03/06 00:07:52;;;;;;;;;;;3.00;99.90;3.40;98943.00;;;;344533;28;83511;-87
2023/03/06 00:08:05;;;;;;;;;;;3.00;99.90;3.40;98933.00;;;;347039;28;91547;-88
2023/03/06 00:08:16;;;;;;;;;;;3.00;99.90;3.50;98942.00;;;;344768;28;82528;-87
2023/03/06 00:08:28;;;;;;;;;;;3.00;99.90;3.60;98939.00;;;;347291;27;91343;-87
2023/03/06 00:08:40;;;;;;;;;;;2.90;99.90;3.60;98941.00;;;;347618;28;83378;-87
2023/03/06 00:08:53;;;;;;;;;;;2.90;99.90;3.60;98934.00;;;;347134;28;91320;-87
2023/03/06 00:09:05;;;;;;;;;;;3.00;99.90;3.50;98938.00;;;;346069;28;83358;-87
2023/03/06 00:09:17;;;;;;;;;;;3.00;99.90;3.50;98942.00;;;;345782;28;89906;-86
2023/03/06 00:09:28;;;;;;;;;;;2.90;99.90;3.50;98943.00;;;;344837;28;82483;-87
2023/03/06 00:09:40;;;;;;;;;;;2.90;99.90;3.60;98939.00;;;;344245;28;91545;-87
2023/03/06 00:09:52;;;;;;;;;;;2.90;99.90;3.60;98940.00;;;;343602;28;83530;-87
2023/03/06 00:10:04;;;;;;;;;;;2.90;99.90;3.60;98940.00;;;;344252;28;90311;-87
2023/03/06 00:10:18;;;;;;;;;;;2.90;99.90;3.70;98936.00;;;;346274;28;82560;-88
2023/03/06 00:10:30;;;;;;;;;;;2.90;99.90;3.70;98936.00;;;;348610;27;89215;-86
2023/03/06 00:10:41;;;;;;;;;;;3.00;99.90;3.70;98940.00;;;;347656;28;83410;-87
2023/03/06 00:10:53;;;;;;;;;;;3.00;99.90;3.70;98935.00;;;;345801;28;91259;-87
2023/03/06 00:11:05;;;;;;;;;;;2.90;99.90;3.60;98934.00;;;;346162;28;82353;-88
2023/03/06 00:11:17;;;;;;;;;;;3.00;99.90;3.60;98934.00;;;;345795;28;92074;-86
2023/03/06 00:11:29;;;;;;;;;;;2.90;99.90;3.60;98922.00;;;;349001;27;83428;-87
2023/03/06 00:11:41;;;;;;;;;;;2.90;99.90;3.50;98922.00;;;;345657;28;91667;-87
2023/03/06 00:11:52;;;;;;;;;;;2.90;99.90;3.40;98937.00;;;;347274;28;82480;-87
2023/03/06 00:12:05;;;;;;;;;;;2.90;99.90;3.40;98929.00;;;;347104;28;91989;-87
2023/03/06 00:12:16;;;;;;;;;;;2.90;99.90;3.40;98939.00;;;;346129;28;83320;-88
2023/03/06 00:12:28;;;;;;;;;;;2.90;99.90;3.40;98938.00;;;;345714;28;91398;-87
2023/03/06 00:12:40;;;;;;;;;;;2.90;99.90;3.40;98937.00;;;;346224;28;82535;-87
2023/03/06 00:12:57;;;;;;;;;;;2.90;99.90;3.50;98930.00;;;;345765;28;91739;-87
2023/03/06 00:13:11;;;;;;;;;;;2.90;99.90;3.50;98939.00;;;;347571;28;83372;-87
2023/03/06 00:13:23;;;;;;;;;;;2.90;99.90;3.50;98936.00;;;;345734;28;91463;-87
2023/03/06 00:13:35;;;;;;;;;;;2.90;99.90;3.50;98936.00;;;;346153;28;83355;-87
2023/03/06 00:13:47;;;;;;;;;;;2.90;99.90;3.50;98936.00;;;;344334;28;92018;-87
2023/03/06 00:13:59;;;;;;;;;;;2.90;99.90;3.50;98929.00;;;;347594;28;83395;-87
2023/03/06 00:14:10;;;;;;;;;;;2.90;99.90;3.50;98937.00;;;;347101;28;91289;-88
2023/03/06 00:14:22;;;;;;;;;;;2.90;99.90;3.40;98941.00;;;;346266;28;82603;-87
2023/03/06 00:14:34;;;;;;;;;;;2.90;99.90;3.50;98936.00;;;;345978;28;91374;-87
2023/03/06 00:14:46;;;;;;;;;;;2.90;99.90;3.50;98941.00;;;;346266;28;83219;-87
2023/03/06 00:14:58;;;;;;;;;;;2.90;99.90;3.50;98948.00;;;;347027;28;90641;-87
2023/03/06 00:15:10;;;;;;;;;;;2.90;99.90;3.50;98935.00;;;;344774;28;83526;-88
2023/03/06 00:15:22;;;;;;;;;;;2.90;99.90;3.40;98938.00;;;;347212;28;91778;-87
2023/03/06 00:15:34;;;;;;;;;;;2.90;99.90;3.50;98931.00;;;;347546;28;83360;-87
2023/03/06 00:15:46;;;;;;;;;;;2.90;99.90;3.50;98934.00;;;;348206;27;91586;-86
2023/03/06 00:15:59;;;;;;;;;;;2.90;99.90;3.50;98940.00;;;;347428;28;82357;-87
2023/03/06 00:16:11;;;;;;;;;;;2.90;99.90;3.40;98941.00;;;;345823;28;92193;-87
2023/03/06 00:16:23;;;;;;;;;;;2.90;99.90;3.40;98942.00;;;;344800;28;84155;-87
2023/03/06 00:16:35;;;;;;;;;;;2.90;99.90;3.40;98935.00;;;;347295;28;91218;-86
2023/03/06 00:16:47;;;;;;;;;;;2.90;99.90;3.40;98933.00;;;;347592;28;83413;-86
2023/03/06 00:16:59;;;;;;;;;;;2.90;99.90;3.40;98937.00;;;;345870;28;91375;-88
2023/03/06 00:17:11;;;;;;;;;;;2.80;99.90;3.40;98941.00;;;;347740;28;83501;-87
2023/03/06 00:17:23;;;;;;;;;;;2.90;99.90;3.30;98935.00;;;;344622;28;90925;-87
2023/03/06 00:17:35;;;;;;;;;;;2.90;99.90;3.40;98942.00;;;;346238;28;83337;-87
2023/03/06 00:17:47;;;;;;;;;;;2.90;99.90;3.40;98936.00;;;;347215;28;90100;-88
2023/03/06 00:17:58;;;;;;;;;;;2.80;99.90;3.30;98932.00;;;;345976;28;83187;-86
2023/03/06 00:18:10;;;;;;;;;;;2.80;99.90;3.30;98935.00;;;;348281;27;90901;-88
2023/03/06 00:18:22;;;;;;;;;;;2.80;99.90;3.30;98940.00;;;;348786;27;83363;-88
2023/03/06 00:18:34;;;;;;;;;;;2.80;99.90;3.30;98936.00;;;;345788;28;90631;-87
2023/03/06 00:18:46;;;;;;;;;;;2.80;99.90;3.30;98938.00;;;;347632;28;82494;-87
2023/03/06 00:18:58;;;;;;;;;;;2.80;99.90;3.30;98939.00;;;;344208;28;90171;-87
2023/03/06 00:19:10;;;;;;;;;;;2.80;99.90;3.40;98937.00;;;;346237;28;83878;-87
2023/03/06 00:19:22;;;;;;;;;;;2.80;99.90;3.50;98931.00;;;;345874;28;89833;-86
2023/03/06 00:19:33;;;;;;;;;;;2.80;99.90;3.60;98930.00;;;;346172;28;82453;-87
2023/03/06 00:19:45;;;;;;;;;;;2.80;99.90;3.60;98933.00;;;;345717;28;91864;-87
2023/03/06 00:19:57;;;;;;;;;;;2.80;99.90;3.60;98931.00;;;;346069;28;83405;-87
2023/03/06 00:20:12;;;;;;;;;;;2.90;99.90;3.50;98934.00;;;;345835;28;88027;-87
2023/03/06 00:20:25;;;;;;;;;;;2.80;99.90;3.60;98932.00;;;;344675;28;82522;-87
2023/03/06 00:20:38;;;;;;;;;;;2.90;99.90;3.60;98929.00;;;;345609;28;90466;-87
2023/03/06 00:20:50;;;;;;;;;;;2.90;99.90;3.50;98934.00;;;;346159;28;83510;-87
2023/03/06 00:21:06;;;;;;;;;;;2.90;99.90;3.50;98935.00;;;;345790;28;90495;-88
2023/03/06 00:21:17;;;;;;;;;;;2.90;99.90;3.50;98935.00;;;;349083;27;83446;-87
2023/03/06 00:21:29;;;;;;;;;;;2.90;99.90;3.50;98930.00;;;;344420;28;90218;-87
2023/03/06 00:21:41;;;;;;;;;;;2.90;99.90;3.40;98935.00;;;;346175;28;82573;-87
2023/03/06 00:21:53;;;;;;;;;;;2.90;99.90;3.40;98940.00;;;;347074;28;90857;-87
2023/03/06 00:22:05;;;;;;;;;;;2.90;99.90;3.40;98933.00;;;;347389;28;83473;-88
2023/03/06 00:22:17;;;;;;;;;;;2.80;99.90;3.30;98935.00;;;;347064;28;91740;-88
2023/03/06 00:22:29;;;;;;;;;;;2.90;99.90;3.30;98937.00;;;;348638;27;83599;-88
2023/03/06 00:22:41;;;;;;;;;;;2.90;99.90;3.30;98938.00;;;;346893;28;90507;-87
2023/03/06 00:22:54;;;;;;;;;;;2.80;99.90;3.40;98933.00;;;;348972;27;83328;-87
2023/03/06 00:23:07;;;;;;;;;;;2.90;99.90;3.40;98933.00;;;;347131;27;90345;-88
2023/03/06 00:23:19;;;;;;;;;;;2.80;99.90;3.40;98934.00;;;;347738;28;82483;-88
2023/03/06 00:23:31;;;;;;;;;;;2.80;99.90;3.40;98932.00;;;;344523;28;90353;-87
2023/03/06 00:23:43;;;;;;;;;;;2.80;99.90;3.30;98929.00;;;;346092;28;83494;-88
2023/03/06 00:23:54;;;;;;;;;;;2.80;99.90;3.30;98936.00;;;;344346;28;92279;-87
2023/03/06 00:24:06;;;;;;;;;;;2.80;99.90;3.30;98944.00;;;;346260;28;82519;-87
2023/03/06 00:24:18;;;;;;;;;;;2.80;99.90;3.30;98928.00;;;;347066;28;92368;-87
2023/03/06 00:24:30;;;;;;;;;;;2.80;99.90;3.30;98939.00;;;;344814;28;83442;-88
2023/03/06 00:24:43;;;;;;;;;;;2.80;99.90;3.30;98929.00;;;;347091;28;91773;-87
2023/03/06 00:24:54;;;;;;;;;;;2.80;99.90;3.30;98938.00;;;;346450;28;82396;-87
2023/03/06 00:25:07;;;;;;;;;;;2.80;99.90;3.30;98938.00;;;;347038;27;91620;-87
2023/03/06 00:25:20;;;;;;;;;;;2.80;99.90;3.30;98933.00;;;;347426;28;83575;-87
2023/03/06 00:25:35;;;;;;;;;;;2.80;99.90;3.40;98934.00;;;;345468;28;93203;-87
2023/03/06 00:25:47;;;;;;;;;;;2.80;99.90;3.40;98941.00;;;;347443;28;82483;-88
2023/03/06 00:25:59;;;;;;;;;;;2.80;99.90;3.50;98935.00;;;;344297;28;92612;-87
2023/03/06 00:26:10;;;;;;;;;;;2.80;99.90;3.40;98930.00;;;;347511;28;83367;-86
2023/03/06 00:26:22;;;;;;;;;;;2.80;99.90;3.40;98933.00;;;;345667;28;90325;-87
2023/03/06 00:26:35;;;;;;;;;;;2.80;99.90;3.50;98931.00;;;;344677;28;83480;-87
2023/03/06 00:26:47;;;;;;;;;;;2.80;99.90;3.60;98931.00;;;;347060;28;90469;-87
2023/03/06 00:26:59;;;;;;;;;;;2.80;99.90;3.60;98930.00;;;;347732;28;82433;-87
2023/03/06 00:27:10;;;;;;;;;;;2.80;99.90;3.60;98934.00;;;;347009;27;90873;-87
2023/03/06 00:27:25;;;;;;;;;;;2.80;99.90;3.60;98939.00;;;;344876;28;83345;-87
2023/03/06 00:27:36;;;;;;;;;;;2.80;99.90;3.70;98932.00;;;;345811;28;91600;-87
2023/03/06 00:27:49;;;;;;;;;;;2.80;99.90;3.80;98936.00;;;;347332;28;83399;-87
2023/03/06 00:28:01;;;;;;;;;;;2.80;99.90;3.80;98931.00;;;;345709;28;91680;-88
2023/03/06 00:28:14;;;;;;;;;;;2.80;99.90;3.80;98934.00;;;;346207;28;82499;-87
2023/03/06 00:28:29;;;;;;;;;;;2.90;99.90;3.80;98926.00;;;;347106;28;90398;-88
2023/03/06 00:28:41;;;;;;;;;;;2.90;99.90;3.70;98929.00;;;;346382;28;82465;-87
2023/03/06 00:28:53;;;;;;;;;;;2.90;99.90;3.70;98929.00;;;;344790;28;90060;-87
2023/03/06 00:29:05;;;;;;;;;;;2.90;99.90;3.70;98930.00;;;;348175;28;82319;-87
2023/03/06 00:29:16;;;;;;;;;;;2.90;99.90;3.60;98921.00;;;;348101;28;89859;-87
2023/03/06 00:29:28;;;;;;;;;;;2.90;99.90;3.60;98931.00;;;;346876;28;82460;-87
2023/03/06 00:29:40;;;;;;;;;;;2.90;99.90;3.50;98926.00;;;;347862;27;90370;-86
2023/03/06 00:29:56;;;;;;;;;;;2.90;99.90;3.60;98933.00;;;;347128;28;82508;-87
2023/03/06 00:30:10;;;;;;;;;;;2.90;99.90;3.50;98928.00;;;;347771;28;91305;-87
2023/03/06 00:30:22;;;;;;;;;;;2.90;99.90;3.40;98940.00;;;;346526;28;83467;-89
2023/03/06 00:30:34;;;;;;;;;;;2.90;99.90;3.40;98940.00;;;;345912;28;90865;-87
2023/03/06 00:30:46;;;;;;;;;;;2.90;99.90;3.40;98927.00;;;;350698;27;82481;-87
2023/03/06 00:30:58;;;;;;;;;;;2.90;99.90;3.40;98931.00;;;;344497;28;91729;-88
2023/03/06 00:31:10;;;;;;;;;;;2.90;99.90;3.40;98934.00;;;;349220;27;83461;-88
2023/03/06 00:31:21;;;;;;;;;;;2.90;99.90;3.40;98939.00;;;;347485;28;90948;-88
2023/03/06 00:31:34;;;;;;;;;;;2.90;99.90;3.40;98924.00;;;;346648;28;83560;-87
2023/03/06 00:31:46;;;;;;;;;;;2.80;99.90;3.40;98939.00;;;;343713;28;90771;-88
2023/03/06 00:31:58;;;;;;;;;;;2.90;99.90;3.40;98935.00;;;;346732;28;82387;-87
2023/03/06 00:32:10;;;;;;;;;;;2.90;99.90;3.50;98931.00;;;;347229;28;92428;-87
2023/03/06 00:32:22;;;;;;;;;;;2.80;99.90;3.50;98937.00;;;;347914;28;83512;-87
2023/03/06 00:32:34;;;;;;;;;;;2.90;99.90;3.50;98935.00;;;;346136;28;90259;-89
2023/03/06 00:32:46;;;;;;;;;;;2.80;99.90;3.60;98925.00;;;;345413;28;83439;-87
2023/03/06 00:32:58;;;;;;;;;;;2.90;99.90;3.70;98941.00;;;;347398;28;90830;-88
2023/03/06 00:33:11;;;;;;;;;;;2.80;99.90;3.60;98927.00;;;;347779;28;83458;-87
2023/03/06 00:33:23;;;;;;;;;;;2.90;99.90;3.60;98931.00;;;;343110;28;89065;-87
2023/03/06 00:33:34;;;;;;;;;;;2.90;99.90;3.60;98926.00;;;;346155;28;83393;-87
2023/03/06 00:33:46;;;;;;;;;;;2.90;99.90;3.50;98924.00;;;;345375;28;91573;-87
2023/03/06 00:33:58;;;;;;;;;;;2.90;99.90;3.50;98927.00;;;;346096;28;83492;-87
2023/03/06 00:34:10;;;;;;;;;;;2.80;99.90;3.50;98921.00;;;;344285;28;91196;-88
2023/03/06 00:34:21;;;;;;;;;;;2.90;99.90;3.50;98929.00;;;;346085;28;83458;-87
2023/03/06 00:34:33;;;;;;;;;;;2.80;99.90;3.40;98929.00;;;;345587;28;91083;-87
2023/03/06 00:34:48;;;;;;;;;;;2.90;99.90;3.50;98921.00;;;;347540;28;83427;-88
2023/03/06 00:35:00;;;;;;;;;;;2.90;99.90;3.50;98923.00;;;;344226;28;91434;-87
2023/03/06 00:35:12;;;;;;;;;;;2.90;99.90;3.60;98918.00;;;;347361;28;83560;-88
2023/03/06 00:35:24;;;;;;;;;;;2.80;99.90;3.60;98910.00;;;;347088;28;91058;-88
2023/03/06 00:35:37;;;;;;;;;;;2.80;99.90;3.60;98929.00;;;;347576;28;82544;-88
2023/03/06 00:35:49;;;;;;;;;;;2.80;99.90;3.60;98914.00;;;;345694;28;89066;-87
2023/03/06 00:36:04;;;;;;;;;;;2.90;99.90;3.50;98913.00;;;;346149;28;83393;-87
2023/03/06 00:36:16;;;;;;;;;;;2.90;99.90;3.50;98924.00;;;;346712;28;91742;-87
2023/03/06 00:36:27;;;;;;;;;;;2.80;99.90;3.50;98920.00;;;;346163;28;83335;-87
2023/03/06 00:36:40;;;;;;;;;;;2.80;99.90;3.50;98921.00;;;;345676;28;91488;-87
2023/03/06 00:36:52;;;;;;;;;;;2.90;99.90;3.40;98918.00;;;;347536;28;83437;-87
2023/03/06 00:37:04;;;;;;;;;;;2.80;99.90;3.40;98921.00;;;;346977;28;91396;-87
2023/03/06 00:37:16;;;;;;;;;;;2.90;99.90;3.60;98918.00;;;;347234;28;82537;-87
2023/03/06 00:37:27;;;;;;;;;;;2.80;99.90;3.60;98920.00;;;;345651;28;91605;-88
2023/03/06 00:37:39;;;;;;;;;;;2.90;99.90;3.60;98910.00;;;;346086;28;83434;-88
2023/03/06 00:37:51;;;;;;;;;;;2.90;99.90;3.60;98924.00;;;;347201;28;90168;-87
2023/03/06 00:38:03;;;;;;;;;;;2.90;99.90;3.60;98911.00;;;;350403;27;83245;-88
2023/03/06 00:38:14;;;;;;;;;;;2.90;99.90;3.60;98924.00;;;;345646;28;91826;-87
2023/03/06 00:38:30;;;;;;;;;;;2.90;99.90;3.60;98919.00;;;;343392;28;83338;-87
2023/03/06 00:38:42;;;;;;;;;;;2.90;99.90;3.50;98913.00;;;;345882;28;90401;-87
2023/03/06 00:38:53;;;;;;;;;;;2.80;99.90;3.50;98911.00;;;;347631;28;83356;-87
2023/03/06 00:39:05;;;;;;;;;;;2.90;99.90;3.40;98920.00;;;;345740;28;91515;-87
2023/03/06 00:39:17;;;;;;;;;;;2.90;99.90;3.40;98925.00;;;;346181;28;83456;-88
2023/03/06 00:39:29;;;;;;;;;;;2.90;99.90;3.40;98922.00;;;;347274;28;90327;-87
2023/03/06 00:39:40;;;;;;;;;;;2.80;99.90;3.30;98917.00;;;;347606;28;83462;-87
2023/03/06 00:39:52;;;;;;;;;;;2.80;99.90;3.30;98919.00;;;;347280;28;90573;-87
2023/03/06 00:40:05;;;;;;;;;;;2.80;99.90;3.30;98923.00;;;;346178;28;83453;-88
2023/03/06 00:40:18;;;;;;;;;;;2.80;99.90;3.40;98928.00;;;;345706;28;92194;-87
2023/03/06 00:40:30;;;;;;;;;;;2.80;99.90;3.40;98921.00;;;;347753;27;82538;-87
2023/03/06 00:40:42;;;;;;;;;;;2.80;99.90;3.40;98925.00;;;;345591;28;90096;-88
2023/03/06 00:40:53;;;;;;;;;;;2.80;99.90;3.40;98914.00;;;;346141;28;83447;-87
2023/03/06 00:41:09;;;;;;;;;;;2.80;99.90;3.30;98918.00;;;;345603;28;90372;-86
2023/03/06 00:41:21;;;;;;;;;;;2.80;99.90;3.30;98926.00;;;;344880;28;82641;-87
2023/03/06 00:41:33;;;;;;;;;;;2.80;99.90;3.30;98912.00;;;;347027;27;90201;-87
2023/03/06 00:41:44;;;;;;;;;;;2.80;99.90;3.20;98916.00;;;;347487;28;83390;-87
2023/03/06 00:41:57;;;;;;;;;;;2.80;99.90;3.20;98916.00;;;;345710;28;91083;-87
2023/03/06 00:42:09;;;;;;;;;;;2.80;99.90;3.20;98921.00;;;;346305;28;83313;-87
2023/03/06 00:42:21;;;;;;;;;;;2.70;99.90;3.20;98911.00;;;;345522;28;92390;-87
2023/03/06 00:42:33;;;;;;;;;;;2.70;99.90;3.30;98917.00;;;;346138;28;82610;-87
2023/03/06 00:42:45;;;;;;;;;;;2.70;99.90;3.30;98919.00;;;;347044;28;91613;-87
2023/03/06 00:42:56;;;;;;;;;;;2.70;99.90;3.30;98916.00;;;;346084;28;83307;-87
2023/03/06 00:43:08;;;;;;;;;;;2.70;99.90;3.30;98917.00;;;;344406;28;88623;-87
2023/03/06 00:43:20;;;;;;;;;;;2.70;99.90;3.30;98906.00;;;;346244;28;83513;-88
2023/03/06 00:43:32;;;;;;;;;;;2.70;99.90;3.30;98920.00;;;;347256;28;88049;-87
2023/03/06 00:43:43;;;;;;;;;;;2.70;99.90;3.40;98922.00;;;;347402;27;83452;-87
2023/03/06 00:43:55;;;;;;;;;;;2.70;99.90;3.30;98917.00;;;;347125;28;90575;-87
2023/03/06 00:44:07;;;;;;;;;;;2.70;99.90;3.40;98927.00;;;;346191;28;82510;-88
2023/03/06 00:44:19;;;;;;;;;;;2.70;99.90;3.50;98915.00;;;;344295;28;92351;-87
2023/03/06 00:44:31;;;;;;;;;;;2.70;99.90;3.50;98924.00;;;;346179;28;83890;-87
2023/03/06 00:44:43;;;;;;;;;;;2.70;99.90;3.40;98910.00;;;;344239;28;91803;-87
2023/03/06 00:44:55;;;;;;;;;;;2.80;99.90;3.50;98910.00;;;;344616;28;83369;-88
2023/03/06 00:45:07;;;;;;;;;;;2.70;99.90;3.40;98926.00;;;;345569;28;91241;-88
2023/03/06 00:45:19;;;;;;;;;;;2.70;99.90;3.30;98909.00;;;;344922;28;82523;-87
2023/03/06 00:45:31;;;;;;;;;;;2.70;99.90;3.30;98920.00;;;;347076;28;91935;-87
2023/03/06 00:45:43;;;;;;;;;;;2.80;99.90;3.40;98912.00;;;;346026;28;83437;-87
2023/03/06 00:45:55;;;;;;;;;;;2.70;99.90;3.30;98916.00;;;;346911;28;90594;-87
2023/03/06 00:46:06;;;;;;;;;;;2.70;99.90;3.30;98920.00;;;;346075;28;83450;-88
2023/03/06 00:46:18;;;;;;;;;;;2.70;99.90;3.30;98912.00;;;;345542;28;92389;-87
2023/03/06 00:46:30;;;;;;;;;;;2.70;99.90;3.30;98910.00;;;;347406;28;82537;-87
2023/03/06 00:46:42;;;;;;;;;;;2.70;99.90;3.30;98923.00;;;;345705;28;91189;-87
2023/03/06 00:46:54;;;;;;;;;;;2.70;99.90;3.30;98917.00;;;;347565;28;83491;-88
2023/03/06 00:47:06;;;;;;;;;;;2.70;99.90;3.20;98916.00;;;;345436;28;91274;-88
2023/03/06 00:47:17;;;;;;;;;;;2.70;99.90;3.20;98912.00;;;;346115;28;82414;-87
2023/03/06 00:47:29;;;;;;;;;;;2.70;99.90;3.30;98915.00;;;;347063;28;92004;-87
2023/03/06 00:47:41;;;;;;;;;;;2.70;99.90;3.30;98906.00;;;;346099;28;83922;-87
2023/03/06 00:47:53;;;;;;;;;;;2.70;99.90;3.30;98927.00;;;;344347;28;91148;-88
2023/03/06 00:48:05;;;;;;;;;;;2.70;99.90;3.30;98921.00;;;;347385;28;83182;-87
2023/03/06 00:48:17;;;;;;;;;;;2.70;99.90;3.20;98923.00;;;;346808;28;91470;-87
2023/03/06 00:48:28;;;;;;;;;;;2.70;99.90;3.30;98921.00;;;;345962;28;83575;-88
2023/03/06 00:48:40;;;;;;;;;;;2.70;99.90;3.30;98918.00;;;;345792;28;91600;-88
2023/03/06 00:48:52;;;;;;;;;;;2.70;99.90;3.20;98927.00;;;;347441;28;83443;-87
2023/03/06 00:49:04;;;;;;;;;;;2.70;99.90;3.20;98915.00;;;;348298;27;91369;-88
2023/03/06 00:49:16;;;;;;;;;;;2.70;99.90;3.30;98916.00;;;;346191;28;83481;-87
2023/03/06 00:49:27;;;;;;;;;;;2.70;99.90;3.40;98921.00;;;;347130;28;90925;-88
2023/03/06 00:49:39;;;;;;;;;;;2.70;99.90;3.40;98919.00;;;;346028;28;83526;-87
2023/03/06 00:49:51;;;;;;;;;;;2.70;99.90;3.50;98921.00;;;;345600;28;91244;-88
2023/03/06 00:50:03;;;;;;;;;;;2.70;99.90;3.50;98916.00;;;;344714;28;82659;-87
2023/03/06 00:50:15;;;;;;;;;;;2.70;99.90;3.40;98920.00;;;;345516;28;91870;-87
2023/03/06 00:50:27;;;;;;;;;;;2.70;99.90;3.50;98923.00;;;;345800;28;83310;-87
2023/03/06 00:50:39;;;;;;;;;;;2.70;99.90;3.50;98929.00;;;;347168;28;90389;-87
2023/03/06 00:50:50;;;;;;;;;;;2.70;99.90;3.50;98929.00;;;;347544;28;83306;-88
2023/03/06 00:51:02;;;;;;;;;;;2.70;99.90;3.50;98919.00;;;;344319;28;89179;-88
2023/03/06 00:51:16;;;;;;;;;;;2.70;99.90;3.40;98913.00;;;;344737;28;82425;-87
2023/03/06 00:51:27;;;;;;;;;;;2.70;99.90;3.40;98927.00;;;;347078;28;91608;-88
2023/03/06 00:51:39;;;;;;;;;;;2.70;99.90;3.40;98922.00;;;;347439;28;83487;-88
2023/03/06 00:51:51;;;;;;;;;;;2.70;99.90;3.40;98922.00;;;;345649;28;90926;-88
2023/03/06 00:52:03;;;;;;;;;;;2.70;99.90;3.40;98907.00;;;;346109;28;83263;-88
2023/03/06 00:52:15;;;;;;;;;;;2.70;99.90;3.40;98918.00;;;;345466;28;92422;-87
2023/03/06 00:52:27;;;;;;;;;;;2.70;99.90;3.50;98924.00;;;;345852;28;83463;-87
2023/03/06 00:52:40;;;;;;;;;;;2.70;99.90;3.50;98912.00;;;;347011;28;91629;-87
2023/03/06 00:52:52;;;;;;;;;;;2.70;99.90;3.60;98910.00;;;;347533;28;82474;-87
2023/03/06 00:53:04;;;;;;;;;;;2.70;99.90;3.50;98905.00;;;;344248;28;90865;-88
2023/03/06 00:53:16;;;;;;;;;;;2.70;99.90;3.60;98920.00;;;;346076;28;83240;-87
2023/03/06 00:53:28;;;;;;;;;;;2.80;99.90;3.50;98918.00;;;;345775;28;88073;-87
2023/03/06 00:53:39;;;;;;;;;;;2.70;99.90;3.50;98919.00;;;;347436;28;82466;-87
2023/03/06 00:53:51;;;;;;;;;;;2.70;99.90;3.50;98914.00;;;;347104;28;91406;-87
2023/03/06 00:54:03;;;;;;;;;;;2.80;99.90;3.50;98915.00;;;;347568;28;82525;-87
2023/03/06 00:54:15;;;;;;;;;;;2.70;99.90;3.50;98917.00;;;;345481;28;93017;-87
2023/03/06 00:54:26;;;;;;;;;;;2.70;99.90;3.40;98920.00;;;;346055;28;82525;-87
2023/03/06 00:54:39;;;;;;;;;;;2.70;99.90;3.50;98913.00;;;;345662;28;91375;-88
2023/03/06 00:54:50;;;;;;;;;;;2.80;99.90;3.40;98920.00;;;;345925;28;83288;-87
2023/03/06 00:55:03;;;;;;;;;;;2.80;99.90;3.30;98919.00;;;;347080;28;89948;-87
2023/03/06 00:55:15;;;;;;;;;;;2.70;99.90;3.20;98910.00;;;;347428;28;83527;-87
2023/03/06 00:55:28;;;;;;;;;;;2.70;99.90;3.20;98906.00;;;;347021;28;89234;-87
2023/03/06 00:55:43;;;;;;;;;;;2.70;99.90;3.20;98917.00;;;;346019;28;83417;-87
2023/03/06 00:55:55;;;;;;;;;;;2.70;99.90;3.20;98915.00;;;;345705;28;90677;-87
2023/03/06 00:56:08;;;;;;;;;;;2.70;99.90;3.20;98910.00;;;;347557;28;83436;-87
2023/03/06 00:56:19;;;;;;;;;;;2.70;99.90;3.20;98917.00;;;;348306;27;92183;-88
2023/03/06 00:56:31;;;;;;;;;;;2.70;99.90;3.20;98921.00;;;;346137;28;83376;-87
2023/03/06 00:56:43;;;;;;;;;;;2.70;99.90;3.20;98920.00;;;;347028;28;91400;-87
2023/03/06 00:56:55;;;;;;;;;;;2.70;99.90;3.10;98920.00;;;;348928;27;83390;-87
2023/03/06 00:57:07;;;;;;;;;;;2.70;99.90;3.10;98912.00;;;;347039;28;91324;-87
2023/03/06 00:57:18;;;;;;;;;;;2.70;99.90;3.20;98921.00;;;;348882;27;83450;-87
2023/03/06 00:57:30;;;;;;;;;;;2.70;99.90;3.30;98922.00;;;;346875;28;92211;-88
2023/03/06 00:57:42;;;;;;;;;;;2.70;99.90;3.30;98914.00;;;;344482;28;83515;-88
2023/03/06 00:57:54;;;;;;;;;;;2.70;99.90;3.20;98926.00;;;;347132;28;91593;-87
2023/03/06 00:58:06;;;;;;;;;;;2.70;99.90;3.20;98909.00;;;;348836;27;83256;-87
2023/03/06 00:58:17;;;;;;;;;;;2.60;99.90;3.20;98916.00;;;;346881;28;91751;-87
2023/03/06 00:58:29;;;;;;;;;;;2.70;99.90;3.20;98920.00;;;;344617;28;83510;-87
2023/03/06 00:58:41;;;;;;;;;;;2.60;99.90;3.20;98920.00;;;;347105;28;90747;-87
2023/03/06 00:58:52;;;;;;;;;;;2.60;99.90;3.20;98911.00;;;;347451;28;83372;-87
2023/03/06 00:59:04;;;;;;;;;;;2.60;99.90;3.30;98918.00;;;;346909;28;91657;-88
2023/03/06 00:59:16;;;;;;;;;;;2.60;99.90;3.30;98916.00;;;;348905;27;82551;-87
2023/03/06 00:59:28;;;;;;;;;;;2.70;99.90;3.40;98914.00;;;;344199;28;90700;-88
2023/03/06 00:59:39;;;;;;;;;;;2.60;99.90;3.40;98921.00;;;;347343;28;83446;-87
2023/03/06 00:59:51;;;;;;;;;;;2.60;99.90;3.40;98918.00;;;;347117;28;90997;-87
2023/03/06 01:00:04;;;;;;;;;;;2.60;99.90;3.30;98920.00;;;;348780;27;82507;-87
2023/03/06 01:00:16;;;;;;;;;;;2.60;99.90;3.30;98925.00;;;;344214;28;92720;-88
2023/03/06 01:00:28;;;;;;;;;;;2.70;99.90;3.30;98916.00;;;;346009;28;83342;-87
2023/03/06 01:00:40;;;;;;;;;;;2.70;99.90;3.40;98923.00;;;;347078;28;89761;-88
2023/03/06 01:00:51;;;;;;;;;;;2.60;99.90;3.30;98919.00;;;;346154;28;83344;-87
2023/03/06 01:01:03;;;;;;;;;;;2.60;99.90;3.40;98909.00;;;;345530;28;91608;-87
2023/03/06 01:01:15;;;;;;;;;;;2.60;99.90;3.50;98910.00;;;;345924;28;83277;-88
2023/03/06 01:01:28;;;;;;;;;;;2.60;99.90;3.40;98904.00;;;;345596;28;89935;-88
2023/03/06 01:01:40;;;;;;;;;;;2.70;99.90;3.40;98911.00;;;;346057;28;83486;-87
2023/03/06 01:01:51;;;;;;;;;;;2.60;99.90;3.40;98902.00;;;;347139;28;89832;-87